createdAt,value
2016-10-05T00:00:35.925Z,18.9
2016-10-05T00:01:18.465Z,18.9
2016-10-05T00:02:01.036Z,18.76
2016-10-05T00:02:43.603Z,18.62
2016-10-05T00:03:26.214Z,18.67
2016-10-05T00:04:08.797Z,18.57
2016-10-05T00:04:51.399Z,18.66
2016-10-05T00:05:33.957Z,18.66
2016-10-05T00:06:16.517Z,18.72
2016-10-05T00:06:58.991Z,18.66
2016-10-05T00:07:41.653Z,18.66
2016-10-05T00:08:24.200Z,18.66
2016-10-05T00:09:06.731Z,18.63
2016-10-05T00:09:49.323Z,18.65
2016-10-05T00:10:31.856Z,18.66
2016-10-05T00:11:14.759Z,18.55
2016-10-05T00:11:57.163Z,18.63
2016-10-05T00:12:39.734Z,18.5
2016-10-05T00:13:22.267Z,18.52
2016-10-05T00:14:04.851Z,18.51
2016-10-05T00:14:47.511Z,18.57
2016-10-05T00:15:30.206Z,18.51
2016-10-05T00:16:12.831Z,18.52
2016-10-05T00:16:55.491Z,18.44
2016-10-05T00:17:38.173Z,18.58
2016-10-05T00:18:20.722Z,18.51
2016-10-05T00:19:03.310Z,18.65
2016-10-05T00:19:45.949Z,18.6
2016-10-05T00:20:28.550Z,18.66
2016-10-05T00:21:11.223Z,18.65
2016-10-05T00:21:53.775Z,18.65
2016-10-05T00:22:36.325Z,18.63
2016-10-05T00:23:18.867Z,18.7
2016-10-05T00:24:01.451Z,18.65
2016-10-05T00:24:43.847Z,18.58
2016-10-05T00:25:26.554Z,18.62
2016-10-05T00:26:09.129Z,18.57
2016-10-05T00:26:51.783Z,18.6
2016-10-05T00:27:34.242Z,18.62
2016-10-05T00:28:17.708Z,18.63
2016-10-05T00:29:00.379Z,18.63
2016-10-05T00:29:42.894Z,18.57
2016-10-05T00:30:25.471Z,18.51
2016-10-05T00:31:08.017Z,18.47
2016-10-05T00:31:50.613Z,18.55
2016-10-05T00:32:33.273Z,18.54
2016-10-05T00:33:15.830Z,18.51
2016-10-05T00:33:58.254Z,18.65
2016-10-05T00:34:40.931Z,18.65
2016-10-05T00:35:23.551Z,18.6
2016-10-05T00:36:05.940Z,18.51
2016-10-05T00:36:48.663Z,18.45
2016-10-05T00:37:31.177Z,18.48
2016-10-05T00:38:13.751Z,18.54
2016-10-05T00:38:56.831Z,18.51
2016-10-05T00:39:39.437Z,18.65
2016-10-05T00:40:22.007Z,18.58
2016-10-05T00:41:04.540Z,18.65
2016-10-05T00:41:47.137Z,18.54
2016-10-05T00:42:29.651Z,18.62
2016-10-05T00:43:12.256Z,18.57
2016-10-05T00:43:54.791Z,18.52
2016-10-05T00:44:37.400Z,18.63
2016-10-05T00:45:19.992Z,18.52
2016-10-05T00:46:02.579Z,18.52
2016-10-05T00:46:45.149Z,18.57
2016-10-05T00:47:27.732Z,18.62
2016-10-05T00:48:10.273Z,18.54
2016-10-05T00:48:53.135Z,18.63
2016-10-05T00:49:35.894Z,18.65
2016-10-05T00:50:18.476Z,18.7
2016-10-05T00:51:01.051Z,18.72
2016-10-05T00:51:43.630Z,18.73
2016-10-05T00:52:26.227Z,18.66
2016-10-05T00:53:08.873Z,18.66
2016-10-05T00:53:51.416Z,18.7
2016-10-05T00:54:34.004Z,18.69
2016-10-05T00:55:16.518Z,18.8
2016-10-05T00:55:59.166Z,18.73
2016-10-05T00:56:41.750Z,18.82
2016-10-05T00:57:24.339Z,18.8
2016-10-05T00:58:06.931Z,18.75
2016-10-05T00:58:49.520Z,18.81
2016-10-05T00:59:32.009Z,18.81
2016-10-05T01:00:14.581Z,18.75
2016-10-05T01:00:57.138Z,18.81
2016-10-05T01:01:39.657Z,18.82
2016-10-05T01:02:22.272Z,18.75
2016-10-05T01:03:04.776Z,18.65
2016-10-05T01:03:47.342Z,18.65
2016-10-05T01:04:29.861Z,18.63
2016-10-05T01:05:12.447Z,18.63
2016-10-05T01:05:55.035Z,18.63
2016-10-05T01:06:37.579Z,18.62
2016-10-05T01:07:20.124Z,18.62
2016-10-05T01:08:02.720Z,18.65
2016-10-05T01:08:45.316Z,18.7
2016-10-05T01:09:27.771Z,18.69
2016-10-05T01:10:10.502Z,18.67
2016-10-05T01:10:53.049Z,18.67
2016-10-05T01:11:35.632Z,18.66
2016-10-05T01:12:18.215Z,18.76
2016-10-05T01:13:00.822Z,18.82
2016-10-05T01:13:43.370Z,18.69
2016-10-05T01:14:25.975Z,18.69
2016-10-05T01:15:08.562Z,18.66
2016-10-05T01:15:51.089Z,18.81
2016-10-05T01:16:33.700Z,18.76
2016-10-05T01:17:16.241Z,18.75
2016-10-05T01:17:58.759Z,18.81
2016-10-05T01:18:41.340Z,18.78
2016-10-05T01:19:23.862Z,18.8
2016-10-05T01:20:06.421Z,18.81
2016-10-05T01:20:48.944Z,18.88
2016-10-05T01:21:31.529Z,18.84
2016-10-05T01:22:14.089Z,18.73
2016-10-05T01:22:56.641Z,18.78
2016-10-05T01:23:39.237Z,18.81
2016-10-05T01:24:21.763Z,18.82
2016-10-05T01:25:04.307Z,18.78
2016-10-05T01:25:46.825Z,18.76
2016-10-05T01:26:29.441Z,18.66
2016-10-05T01:27:11.820Z,18.63
2016-10-05T01:27:54.586Z,18.65
2016-10-05T01:28:37.201Z,18.62
2016-10-05T01:29:19.777Z,18.58
2016-10-05T01:30:02.365Z,18.66
2016-10-05T01:30:44.951Z,18.63
2016-10-05T01:31:27.542Z,18.67
2016-10-05T01:32:10.133Z,18.7
2016-10-05T01:32:52.681Z,18.73
2016-10-05T01:33:35.315Z,18.65
2016-10-05T01:34:17.863Z,18.66
2016-10-05T01:35:00.438Z,18.65
2016-10-05T01:35:43.042Z,18.52
2016-10-05T01:36:25.656Z,18.66
2016-10-05T01:37:08.098Z,18.62
2016-10-05T01:37:50.777Z,18.67
2016-10-05T01:38:33.324Z,18.6
2016-10-05T01:39:15.903Z,18.66
2016-10-05T01:39:58.498Z,18.65
2016-10-05T01:40:41.065Z,18.63
2016-10-05T01:41:23.490Z,18.62
2016-10-05T01:42:06.093Z,18.67
2016-10-05T01:42:48.780Z,18.73
2016-10-05T01:43:31.413Z,18.73
2016-10-05T01:44:13.979Z,18.7
2016-10-05T01:44:56.594Z,18.7
2016-10-05T01:45:39.153Z,18.73
2016-10-05T01:46:22.799Z,18.73
2016-10-05T01:47:05.361Z,18.8
2016-10-05T01:47:47.891Z,18.81
2016-10-05T01:48:30.547Z,18.73
2016-10-05T01:49:13.112Z,18.65
2016-10-05T01:49:55.736Z,18.67
2016-10-05T01:50:38.250Z,18.58
2016-10-05T01:51:20.687Z,18.51
2016-10-05T01:52:03.439Z,18.54
2016-10-05T01:52:45.998Z,18.54
2016-10-05T01:53:28.562Z,18.51
2016-10-05T01:54:11.081Z,18.54
2016-10-05T01:54:53.732Z,18.55
2016-10-05T01:55:36.176Z,18.57
2016-10-05T01:56:18.872Z,18.58
2016-10-05T01:57:01.431Z,18.54
2016-10-05T01:57:43.872Z,18.54
2016-10-05T01:58:26.589Z,18.57
2016-10-05T01:59:09.142Z,18.63
2016-10-05T01:59:51.681Z,18.57
2016-10-05T02:00:34.218Z,18.57
2016-10-05T02:01:16.779Z,18.63
2016-10-05T02:01:59.366Z,18.62
2016-10-05T02:02:41.951Z,18.73
2016-10-05T02:03:24.515Z,18.67
2016-10-05T02:04:07.086Z,18.69
2016-10-05T02:04:49.652Z,18.63
2016-10-05T02:05:32.190Z,18.73
2016-10-05T02:06:14.777Z,18.63
2016-10-05T02:06:57.389Z,18.5
2016-10-05T02:07:39.965Z,18.58
2016-10-05T02:08:22.488Z,18.52
2016-10-05T02:09:04.826Z,18.51
2016-10-05T02:09:47.561Z,18.47
2016-10-05T02:10:30.156Z,18.44
2016-10-05T02:11:12.712Z,18.51
2016-10-05T02:11:55.275Z,18.55
2016-10-05T02:12:37.795Z,18.47
2016-10-05T02:13:20.327Z,18.41
2016-10-05T02:14:02.889Z,18.35
2016-10-05T02:14:45.459Z,18.42
2016-10-05T02:15:27.996Z,18.48
2016-10-05T02:16:10.514Z,18.54
2016-10-05T02:16:53.057Z,18.47
2016-10-05T02:17:35.624Z,18.41
2016-10-05T02:18:18.221Z,18.51
2016-10-05T02:19:00.729Z,18.41
2016-10-05T02:19:43.321Z,18.2
2016-10-05T02:20:25.936Z,18.27
2016-10-05T02:21:08.505Z,18.21
2016-10-05T02:21:51.085Z,18.14
2016-10-05T02:22:33.648Z,18.17
2016-10-05T02:23:16.237Z,18.18
2016-10-05T02:23:58.820Z,18.18
2016-10-05T02:24:41.396Z,18.2
2016-10-05T02:25:23.978Z,18.08
2016-10-05T02:26:06.378Z,18.11
2016-10-05T02:26:49.138Z,18.02
2016-10-05T02:27:31.725Z,18
2016-10-05T02:28:14.335Z,18
2016-10-05T02:28:56.823Z,18.05
2016-10-05T02:29:39.390Z,18.03
2016-10-05T02:30:24.872Z,18.05
2016-10-05T02:31:13.992Z,18.17
2016-10-05T02:31:56.689Z,18.23
2016-10-05T02:32:39.322Z,18.18
2016-10-05T02:33:21.874Z,18.17
2016-10-05T02:34:04.286Z,18.21
2016-10-05T02:34:47.081Z,18.26
2016-10-05T02:35:29.643Z,18.2
2016-10-05T02:36:12.165Z,18.27
2016-10-05T02:36:54.770Z,18.15
2016-10-05T02:37:37.289Z,18.25
2016-10-05T02:38:19.801Z,18.2
2016-10-05T02:39:02.391Z,18.12
2016-10-05T02:39:44.910Z,18.2
2016-10-05T02:40:27.505Z,18.1
2016-10-05T02:41:10.679Z,18.05
2016-10-05T02:41:52.637Z,18.07
2016-10-05T02:42:35.202Z,18.1
2016-10-05T02:43:17.726Z,18
2016-10-05T02:44:00.298Z,18.1
2016-10-05T02:44:42.850Z,18.08
2016-10-05T02:45:25.358Z,18.11
2016-10-05T02:46:07.846Z,18.12
2016-10-05T02:46:50.423Z,18.25
2016-10-05T02:47:33.069Z,18.23
2016-10-05T02:48:15.698Z,18.17
2016-10-05T02:48:58.184Z,18.27
2016-10-05T02:49:43.516Z,18.26
2016-10-05T02:50:26.148Z,18.29
2016-10-05T02:51:08.773Z,18.36
2016-10-05T02:51:53.621Z,18.3
2016-10-05T02:52:40.630Z,18.33
2016-10-05T02:53:25.107Z,18.23
2016-10-05T02:54:07.875Z,18.14
2016-10-05T02:54:50.551Z,18.23
2016-10-05T02:55:33.167Z,18.25
2016-10-05T02:56:15.875Z,18.18
2016-10-05T02:56:58.443Z,18.23
2016-10-05T02:57:40.995Z,18.2
2016-10-05T02:58:23.686Z,18.25
2016-10-05T02:59:06.319Z,18.25
2016-10-05T02:59:56.155Z,18.25
2016-10-05T03:00:38.818Z,18.26
2016-10-05T03:01:21.378Z,18.32
2016-10-05T03:02:46.538Z,18.26
2016-10-05T03:03:29.061Z,18.14
2016-10-05T03:04:11.479Z,18.18
2016-10-05T03:04:54.194Z,18.15
2016-10-05T03:05:36.785Z,18.2
2016-10-05T03:06:19.320Z,18.18
2016-10-05T03:07:01.949Z,18.15
2016-10-05T03:07:44.480Z,18.17
2016-10-05T03:08:27.087Z,18.23
2016-10-05T03:09:09.707Z,18.23
2016-10-05T03:09:52.335Z,18.2
2016-10-05T03:10:34.879Z,18.14
2016-10-05T03:11:17.540Z,18.21
2016-10-05T03:12:00.060Z,18.2
2016-10-05T03:12:42.662Z,18.07
2016-10-05T03:13:25.236Z,18.05
2016-10-05T03:14:07.814Z,18.11
2016-10-05T03:14:50.381Z,18.05
2016-10-05T03:15:32.852Z,18.05
2016-10-05T03:16:15.503Z,18.02
2016-10-05T03:16:58.103Z,18.08
2016-10-05T03:17:40.633Z,18
2016-10-05T03:18:23.156Z,18.08
2016-10-05T03:19:05.839Z,18.07
2016-10-05T03:19:48.368Z,18.1
2016-10-05T03:20:30.897Z,17.84
2016-10-05T03:21:13.494Z,17.9
2016-10-05T03:21:56.052Z,17.86
2016-10-05T03:22:38.646Z,17.74
2016-10-05T03:23:21.231Z,17.82
2016-10-05T03:24:03.828Z,17.79
2016-10-05T03:24:46.365Z,17.72
2016-10-05T03:25:28.907Z,17.59
2016-10-05T03:26:11.479Z,17.59
2016-10-05T03:26:53.981Z,17.64
2016-10-05T03:27:36.553Z,17.59
2016-10-05T03:28:19.145Z,17.59
2016-10-05T03:29:01.703Z,17.63
2016-10-05T03:29:44.286Z,17.62
2016-10-05T03:30:26.855Z,17.64
2016-10-05T03:31:09.399Z,17.64
2016-10-05T03:31:51.912Z,17.71
2016-10-05T03:32:34.543Z,17.66
2016-10-05T03:33:17.109Z,17.79
2016-10-05T03:33:59.682Z,17.72
2016-10-05T03:34:42.279Z,17.79
2016-10-05T03:35:24.809Z,17.81
2016-10-05T03:36:07.428Z,18
2016-10-05T03:36:50.024Z,17.95
2016-10-05T03:37:32.548Z,17.9
2016-10-05T03:38:15.153Z,17.92
2016-10-05T03:38:57.761Z,17.92
2016-10-05T03:39:40.310Z,17.97
2016-10-05T03:40:22.790Z,18.03
2016-10-05T03:41:05.480Z,18.03
2016-10-05T03:41:48.076Z,18.02
2016-10-05T03:42:30.471Z,18
2016-10-05T03:43:13.154Z,18.1
2016-10-05T03:43:55.693Z,18.14
2016-10-05T03:44:38.249Z,18.12
2016-10-05T03:45:20.776Z,18.17
2016-10-05T03:46:03.345Z,18.11
2016-10-05T03:46:45.914Z,18.17
2016-10-05T03:47:28.497Z,18.2
2016-10-05T03:48:11.008Z,18.12
2016-10-05T03:48:53.587Z,18.07
2016-10-05T03:49:36.134Z,18.21
2016-10-05T03:50:18.672Z,18.1
2016-10-05T03:51:01.280Z,18.12
2016-10-05T03:51:43.841Z,18.02
2016-10-05T03:52:26.453Z,18.17
2016-10-05T03:53:08.974Z,18.14
2016-10-05T03:53:51.549Z,18.14
2016-10-05T03:54:34.116Z,18.15
2016-10-05T03:55:16.707Z,18.05
2016-10-05T03:55:59.235Z,18.03
2016-10-05T03:56:41.733Z,18.14
2016-10-05T03:57:24.334Z,18.15
2016-10-05T03:58:06.960Z,18.05
2016-10-05T03:58:49.531Z,17.97
2016-10-05T03:59:32.103Z,17.93
2016-10-05T04:00:14.748Z,18.03
2016-10-05T04:00:57.269Z,17.96
2016-10-05T04:01:39.947Z,17.99
2016-10-05T04:02:22.540Z,18
2016-10-05T04:03:05.108Z,18.03
2016-10-05T04:03:47.663Z,18.12
2016-10-05T04:04:30.285Z,18.05
2016-10-05T04:05:12.877Z,18.12
2016-10-05T04:05:55.444Z,18.17
2016-10-05T04:06:37.962Z,18.21
2016-10-05T04:07:20.493Z,18.25
2016-10-05T04:08:03.042Z,18.2
2016-10-05T04:08:45.630Z,18.27
2016-10-05T04:09:28.184Z,18.18
2016-10-05T04:10:11.706Z,18.14
2016-10-05T04:10:54.223Z,18.2
2016-10-05T04:11:36.917Z,18.08
2016-10-05T04:12:19.449Z,18
2016-10-05T04:13:01.933Z,17.92
2016-10-05T04:13:44.496Z,17.89
2016-10-05T04:14:27.057Z,17.97
2016-10-05T04:15:09.568Z,17.87
2016-10-05T04:15:52.174Z,17.86
2016-10-05T04:16:34.760Z,17.95
2016-10-05T04:17:17.369Z,17.93
2016-10-05T04:17:59.895Z,18
2016-10-05T04:18:42.420Z,18
2016-10-05T04:19:24.961Z,17.89
2016-10-05T04:20:07.526Z,17.95
2016-10-05T04:20:50.069Z,17.96
2016-10-05T04:21:32.586Z,18.07
2016-10-05T04:22:15.187Z,17.95
2016-10-05T04:22:57.726Z,17.99
2016-10-05T04:23:40.254Z,18.03
2016-10-05T04:24:22.834Z,18.07
2016-10-05T04:25:05.277Z,18.08
2016-10-05T04:25:47.975Z,18
2016-10-05T04:26:30.509Z,18.03
2016-10-05T04:27:13.077Z,18.03
2016-10-05T04:27:55.713Z,18.1
2016-10-05T04:28:38.281Z,18.07
2016-10-05T04:29:20.840Z,18.05
2016-10-05T04:30:03.334Z,18.07
2016-10-05T04:30:45.941Z,18.03
2016-10-05T04:31:28.515Z,18.1
2016-10-05T04:32:11.055Z,18.03
2016-10-05T04:32:53.646Z,17.92
2016-10-05T04:33:36.201Z,18.1
2016-10-05T04:34:18.849Z,18.07
2016-10-05T04:35:01.248Z,17.95
2016-10-05T04:35:43.907Z,17.93
2016-10-05T04:36:26.464Z,17.84
2016-10-05T04:37:08.931Z,17.9
2016-10-05T04:37:51.563Z,17.86
2016-10-05T04:38:34.149Z,17.92
2016-10-05T04:39:16.692Z,17.87
2016-10-05T04:39:59.367Z,17.87
2016-10-05T04:40:41.913Z,17.96
2016-10-05T04:41:24.455Z,17.86
2016-10-05T04:42:06.990Z,17.77
2016-10-05T04:42:49.523Z,17.75
2016-10-05T04:43:32.098Z,17.75
2016-10-05T04:44:14.655Z,17.72
2016-10-05T04:44:57.257Z,17.75
2016-10-05T04:45:40.449Z,17.7
2016-10-05T04:46:22.420Z,17.72
2016-10-05T04:47:04.864Z,17.71
2016-10-05T04:47:47.434Z,17.75
2016-10-05T04:48:29.953Z,17.86
2016-10-05T04:49:12.948Z,17.77
2016-10-05T04:49:55.077Z,17.84
2016-10-05T04:50:37.610Z,17.9
2016-10-05T04:51:20.204Z,17.82
2016-10-05T04:52:02.793Z,17.81
2016-10-05T04:52:45.411Z,17.75
2016-10-05T04:53:27.983Z,17.72
2016-10-05T04:54:10.480Z,17.74
2016-10-05T04:54:52.974Z,17.77
2016-10-05T04:55:35.582Z,17.78
2016-10-05T04:56:18.188Z,17.78
2016-10-05T04:57:00.741Z,17.74
2016-10-05T04:57:43.256Z,17.77
2016-10-05T04:58:25.800Z,17.75
2016-10-05T04:59:08.384Z,17.77
2016-10-05T04:59:50.756Z,17.74
2016-10-05T05:00:33.550Z,17.79
2016-10-05T05:01:16.079Z,17.86
2016-10-05T05:01:58.711Z,17.87
2016-10-05T05:02:41.329Z,17.9
2016-10-05T05:03:23.878Z,17.84
2016-10-05T05:04:06.444Z,17.87
2016-10-05T05:04:48.971Z,17.78
2016-10-05T05:05:31.564Z,17.75
2016-10-05T05:06:14.196Z,17.74
2016-10-05T05:06:56.721Z,17.74
2016-10-05T05:07:39.276Z,17.77
2016-10-05T05:08:21.833Z,17.74
2016-10-05T05:09:04.493Z,17.87
2016-10-05T05:09:46.832Z,17.77
2016-10-05T05:10:29.531Z,17.77
2016-10-05T05:11:12.036Z,17.78
2016-10-05T05:11:54.670Z,17.78
2016-10-05T05:12:37.224Z,17.74
2016-10-05T05:13:19.752Z,17.81
2016-10-05T05:14:02.357Z,17.81
2016-10-05T05:14:44.917Z,17.9
2016-10-05T05:15:27.535Z,17.81
2016-10-05T05:16:10.121Z,17.9
2016-10-05T05:16:52.730Z,17.89
2016-10-05T05:17:35.251Z,17.9
2016-10-05T05:18:17.791Z,17.86
2016-10-05T05:19:00.202Z,17.86
2016-10-05T05:19:42.946Z,17.93
2016-10-05T05:20:25.468Z,17.9
2016-10-05T05:21:07.995Z,17.86
2016-10-05T05:21:50.569Z,17.75
2016-10-05T05:22:33.131Z,17.82
2016-10-05T05:23:15.673Z,17.93
2016-10-05T05:23:58.189Z,17.86
2016-10-05T05:24:40.753Z,17.82
2016-10-05T05:25:23.275Z,17.75
2016-10-05T05:26:05.782Z,17.82
2016-10-05T05:26:48.387Z,17.82
2016-10-05T05:27:31.003Z,17.79
2016-10-05T05:28:13.502Z,17.93
2016-10-05T05:28:56.067Z,17.87
2016-10-05T05:29:38.606Z,17.92
2016-10-05T05:30:21.182Z,17.95
2016-10-05T05:31:03.711Z,17.86
2016-10-05T05:31:46.939Z,17.9
2016-10-05T05:32:29.537Z,17.95
2016-10-05T05:33:12.098Z,17.93
2016-10-05T05:33:54.472Z,17.93
2016-10-05T05:34:37.178Z,17.96
2016-10-05T05:35:19.724Z,17.9
2016-10-05T05:36:02.287Z,17.97
2016-10-05T05:36:44.802Z,17.95
2016-10-05T05:37:27.372Z,17.95
2016-10-05T05:38:09.959Z,17.93
2016-10-05T05:38:52.505Z,18.07
2016-10-05T05:39:34.950Z,17.96
2016-10-05T05:40:17.681Z,17.93
2016-10-05T05:41:00.253Z,17.93
2016-10-05T05:41:42.820Z,17.96
2016-10-05T05:42:25.336Z,18.07
2016-10-05T05:43:07.856Z,17.99
2016-10-05T05:43:50.334Z,18.07
2016-10-05T05:44:32.970Z,18.08
2016-10-05T05:45:15.523Z,18.11
2016-10-05T05:45:58.088Z,18.12
2016-10-05T05:46:40.524Z,18.14
2016-10-05T05:47:23.305Z,18
2016-10-05T05:48:05.852Z,18.08
2016-10-05T05:48:48.474Z,18.03
2016-10-05T05:49:31.089Z,18.1
2016-10-05T05:50:13.574Z,18.12
2016-10-05T05:50:56.199Z,18.17
2016-10-05T05:51:38.782Z,18.07
2016-10-05T05:52:21.345Z,18.05
2016-10-05T05:53:03.886Z,18.03
2016-10-05T05:53:46.312Z,18.03
2016-10-05T05:54:28.973Z,18.07
2016-10-05T05:55:11.528Z,18.02
2016-10-05T05:55:54.081Z,18.05
2016-10-05T05:56:36.651Z,18.1
2016-10-05T05:57:19.099Z,18.11
2016-10-05T05:58:01.787Z,18.12
2016-10-05T05:58:44.410Z,18.08
2016-10-05T05:59:26.797Z,18.2
2016-10-05T06:00:09.496Z,18.2
2016-10-05T06:00:52.079Z,18.12
2016-10-05T06:01:34.637Z,18.07
2016-10-05T06:02:17.227Z,18.08
2016-10-05T06:02:59.784Z,18.03
2016-10-05T06:03:42.327Z,18.11
2016-10-05T06:04:24.840Z,18.03
2016-10-05T06:05:07.434Z,18.05
2016-10-05T06:05:49.955Z,18.07
2016-10-05T06:06:32.518Z,18.07
2016-10-05T06:07:15.138Z,18.03
2016-10-05T06:07:57.713Z,18.11
2016-10-05T06:08:40.273Z,18.12
2016-10-05T06:09:22.862Z,18.03
2016-10-05T06:10:05.498Z,18.05
2016-10-05T06:10:48.078Z,18.08
2016-10-05T06:11:30.611Z,18.03
2016-10-05T06:12:13.083Z,17.96
2016-10-05T06:12:55.600Z,18.08
2016-10-05T06:13:38.266Z,17.92
2016-10-05T06:14:20.753Z,17.95
2016-10-05T06:15:03.327Z,17.97
2016-10-05T06:15:45.873Z,17.9
2016-10-05T06:16:28.409Z,17.81
2016-10-05T06:17:10.946Z,17.87
2016-10-05T06:17:53.522Z,17.96
2016-10-05T06:18:36.073Z,17.84
2016-10-05T06:19:18.623Z,17.92
2016-10-05T06:20:01.123Z,17.87
2016-10-05T06:20:43.629Z,17.87
2016-10-05T06:21:26.191Z,18
2016-10-05T06:22:08.758Z,17.9
2016-10-05T06:22:51.441Z,17.93
2016-10-05T06:23:34.027Z,17.92
2016-10-05T06:24:16.575Z,17.99
2016-10-05T06:24:59.104Z,17.87
2016-10-05T06:25:41.654Z,17.89
2016-10-05T06:26:24.005Z,17.89
2016-10-05T06:27:06.683Z,17.87
2016-10-05T06:27:49.271Z,17.79
2016-10-05T06:28:31.817Z,17.78
2016-10-05T06:29:14.347Z,17.75
2016-10-05T06:29:56.893Z,17.77
2016-10-05T06:30:39.405Z,17.71
2016-10-05T06:31:22.061Z,17.68
2016-10-05T06:32:04.597Z,17.7
2016-10-05T06:32:47.120Z,17.63
2016-10-05T06:33:29.671Z,17.75
2016-10-05T06:34:12.280Z,17.68
2016-10-05T06:34:54.839Z,17.58
2016-10-05T06:35:37.441Z,17.63
2016-10-05T06:36:19.940Z,17.55
2016-10-05T06:37:02.503Z,17.55
2016-10-05T06:37:45.033Z,17.41
2016-10-05T06:38:27.463Z,17.44
2016-10-05T06:39:10.053Z,17.37
2016-10-05T06:39:52.596Z,17.31
2016-10-05T06:40:35.143Z,17.36
2016-10-05T06:41:17.713Z,17.3
2016-10-05T06:42:00.196Z,17.25
2016-10-05T06:42:42.800Z,17.33
2016-10-05T06:43:25.362Z,17.28
2016-10-05T06:44:07.955Z,17.26
2016-10-05T06:44:50.531Z,17.28
2016-10-05T06:45:33.127Z,17.21
2016-10-05T06:46:15.682Z,17.18
2016-10-05T06:46:58.206Z,17.07
2016-10-05T06:47:40.763Z,17.08
2016-10-05T06:48:23.317Z,17.03
2016-10-05T06:49:05.879Z,17
2016-10-05T06:49:48.428Z,17.04
2016-10-05T06:50:30.976Z,17.01
2016-10-05T06:51:13.523Z,17
2016-10-05T06:51:56.122Z,17.03
2016-10-05T06:52:38.677Z,17.06
2016-10-05T06:53:21.119Z,17.06
2016-10-05T06:54:03.816Z,17
2016-10-05T06:54:46.374Z,17.08
2016-10-05T06:55:28.929Z,17.03
2016-10-05T06:56:11.478Z,17.06
2016-10-05T06:56:54.033Z,17.07
2016-10-05T06:57:36.400Z,17.15
2016-10-05T06:58:19.218Z,17.08
2016-10-05T06:59:01.773Z,17.03
2016-10-05T06:59:44.321Z,17.15
2016-10-05T07:00:26.872Z,17.11
2016-10-05T07:01:09.395Z,17.07
2016-10-05T07:01:51.966Z,17.16
2016-10-05T07:02:34.540Z,17.19
2016-10-05T07:03:17.112Z,17.07
2016-10-05T07:03:59.720Z,16.97
2016-10-05T07:04:42.273Z,17.04
2016-10-05T07:05:24.680Z,17.06
2016-10-05T07:06:07.398Z,17.04
2016-10-05T07:06:50.032Z,17.06
2016-10-05T07:07:32.376Z,17.06
2016-10-05T07:08:15.116Z,17.15
2016-10-05T07:08:57.701Z,17.19
2016-10-05T07:09:40.302Z,17.12
2016-10-05T07:10:22.792Z,17.15
2016-10-05T07:11:05.165Z,17.21
2016-10-05T07:11:47.903Z,17.21
2016-10-05T07:12:30.437Z,17.21
2016-10-05T07:13:13.017Z,17.23
2016-10-05T07:13:55.545Z,17.19
2016-10-05T07:14:38.073Z,17.23
2016-10-05T07:15:20.624Z,17.26
2016-10-05T07:16:03.546Z,17.28
2016-10-05T07:16:46.134Z,17.21
2016-10-05T07:17:28.663Z,17.3
2016-10-05T07:18:11.264Z,17.36
2016-10-05T07:18:53.827Z,17.28
2016-10-05T07:19:36.245Z,17.31
2016-10-05T07:20:18.952Z,17.31
2016-10-05T07:21:01.442Z,17.51
2016-10-05T07:21:44.052Z,17.41
2016-10-05T07:22:26.584Z,17.41
2016-10-05T07:23:09.111Z,17.4
2016-10-05T07:23:51.673Z,17.44
2016-10-05T07:24:34.206Z,17.48
2016-10-05T07:25:16.772Z,17.38
2016-10-05T07:25:59.296Z,17.38
2016-10-05T07:26:41.852Z,17.4
2016-10-05T07:27:24.440Z,17.41
2016-10-05T07:28:07.026Z,17.52
2016-10-05T07:28:49.538Z,17.55
2016-10-05T07:29:32.092Z,17.54
2016-10-05T07:30:14.514Z,17.54
2016-10-05T07:30:57.208Z,17.51
2016-10-05T07:31:39.834Z,17.51
2016-10-05T07:32:22.403Z,17.51
2016-10-05T07:33:04.907Z,17.55
2016-10-05T07:33:47.460Z,17.52
2016-10-05T07:34:30.040Z,17.59
2016-10-05T07:35:12.615Z,17.51
2016-10-05T07:35:55.205Z,17.55
2016-10-05T07:36:37.712Z,17.58
2016-10-05T07:37:20.325Z,17.52
2016-10-05T07:38:02.863Z,17.54
2016-10-05T07:38:45.398Z,17.55
2016-10-05T07:39:27.883Z,17.52
2016-10-05T07:40:10.421Z,17.58
2016-10-05T07:40:53.035Z,17.59
2016-10-05T07:41:35.606Z,17.56
2016-10-05T07:42:17.969Z,17.55
2016-10-05T07:43:00.755Z,17.46
2016-10-05T07:43:43.321Z,17.54
2016-10-05T07:44:25.872Z,17.55
2016-10-05T07:45:08.401Z,17.55
2016-10-05T07:45:50.949Z,17.51
2016-10-05T07:46:33.478Z,17.49
2016-10-05T07:47:16.021Z,17.52
2016-10-05T07:47:58.638Z,17.56
2016-10-05T07:48:41.192Z,17.58
2016-10-05T07:49:23.555Z,17.54
2016-10-05T07:50:06.320Z,17.54
2016-10-05T07:50:48.881Z,17.58
2016-10-05T07:51:31.460Z,17.54
2016-10-05T07:52:14.026Z,17.54
2016-10-05T07:52:56.550Z,17.58
2016-10-05T07:53:38.941Z,17.58
2016-10-05T07:54:21.647Z,17.62
2016-10-05T07:55:04.203Z,17.58
2016-10-05T07:55:46.779Z,17.44
2016-10-05T07:56:29.267Z,17.44
2016-10-05T07:57:11.831Z,17.44
2016-10-05T07:57:54.404Z,17.49
2016-10-05T07:58:36.976Z,17.37
2016-10-05T07:59:19.508Z,17.4
2016-10-05T08:00:02.021Z,17.51
2016-10-05T08:00:44.614Z,17.43
2016-10-05T08:01:27.292Z,17.4
2016-10-05T08:02:09.816Z,17.4
2016-10-05T08:02:52.395Z,17.31
2016-10-05T08:03:34.963Z,17.28
2016-10-05T08:04:17.560Z,17.28
2016-10-05T08:05:00.097Z,17.31
2016-10-05T08:05:42.645Z,17.3
2016-10-05T08:06:25.217Z,17.28
2016-10-05T08:07:07.755Z,17.37
2016-10-05T08:07:50.309Z,17.28
2016-10-05T08:08:32.902Z,17.33
2016-10-05T08:09:15.390Z,17.3
2016-10-05T08:09:57.893Z,17.38
2016-10-05T08:10:40.563Z,17.43
2016-10-05T08:11:23.132Z,17.44
2016-10-05T08:12:05.699Z,17.41
2016-10-05T08:12:48.208Z,17.43
2016-10-05T08:13:30.794Z,17.43
2016-10-05T08:14:13.328Z,17.46
2016-10-05T08:14:55.830Z,17.52
2016-10-05T08:15:38.261Z,17.46
2016-10-05T08:16:20.835Z,17.48
2016-10-05T08:17:03.431Z,17.54
2016-10-05T08:17:45.994Z,17.52
2016-10-05T08:18:28.511Z,17.55
2016-10-05T08:19:11.080Z,17.54
2016-10-05T08:19:53.671Z,17.54
2016-10-05T08:20:36.208Z,17.52
2016-10-05T08:21:18.541Z,17.43
2016-10-05T08:22:01.243Z,17.48
2016-10-05T08:22:43.727Z,17.52
2016-10-05T08:23:26.278Z,17.55
2016-10-05T08:24:08.829Z,17.56
2016-10-05T08:24:51.235Z,17.58
2016-10-05T08:25:33.985Z,17.56
2016-10-05T08:26:16.586Z,17.59
2016-10-05T08:26:59.128Z,17.62
2016-10-05T08:27:41.623Z,17.59
2016-10-05T08:28:24.277Z,17.59
2016-10-05T08:29:06.843Z,17.55
2016-10-05T08:29:49.429Z,17.58
2016-10-05T08:30:31.960Z,17.49
2016-10-05T08:31:14.529Z,17.54
2016-10-05T08:31:57.076Z,17.56
2016-10-05T08:32:39.608Z,17.52
2016-10-05T08:33:22.148Z,17.59
2016-10-05T08:34:04.704Z,17.59
2016-10-05T08:34:47.201Z,17.71
2016-10-05T08:35:29.816Z,17.71
2016-10-05T08:36:12.281Z,17.64
2016-10-05T08:36:54.913Z,17.55
2016-10-05T08:37:37.496Z,17.54
2016-10-05T08:38:20.075Z,17.55
2016-10-05T08:39:02.619Z,17.59
2016-10-05T08:39:45.200Z,17.56
2016-10-05T08:40:27.759Z,17.59
2016-10-05T08:41:10.282Z,17.59
2016-10-05T08:41:52.863Z,17.63
2016-10-05T08:42:35.406Z,17.58
2016-10-05T08:43:17.942Z,17.64
2016-10-05T08:44:00.456Z,17.64
2016-10-05T08:44:43.046Z,17.55
2016-10-05T08:45:25.576Z,17.56
2016-10-05T08:46:08.241Z,17.58
2016-10-05T08:46:50.722Z,17.55
2016-10-05T08:47:33.304Z,17.56
2016-10-05T08:48:15.933Z,17.64
2016-10-05T08:48:58.529Z,17.63
2016-10-05T08:49:41.116Z,17.59
2016-10-05T08:50:23.667Z,17.56
2016-10-05T08:51:06.157Z,17.56
2016-10-05T08:51:48.774Z,17.63
2016-10-05T08:52:31.320Z,17.59
2016-10-05T08:53:13.816Z,17.55
2016-10-05T08:53:56.349Z,17.55
2016-10-05T08:54:38.888Z,17.64
2016-10-05T08:55:21.431Z,17.52
2016-10-05T08:56:03.974Z,17.56
2016-10-05T08:56:46.572Z,17.55
2016-10-05T08:57:29.125Z,17.58
2016-10-05T08:58:11.670Z,17.46
2016-10-05T08:58:54.211Z,17.49
2016-10-05T08:59:36.776Z,17.44
2016-10-05T09:00:19.317Z,17.49
2016-10-05T09:01:01.712Z,17.49
2016-10-05T09:01:44.435Z,17.55
2016-10-05T09:02:26.983Z,17.49
2016-10-05T09:03:09.580Z,17.52
2016-10-05T09:03:52.118Z,17.55
2016-10-05T09:04:34.640Z,17.55
2016-10-05T09:05:17.103Z,17.63
2016-10-05T09:05:59.605Z,17.68
2016-10-05T09:06:42.297Z,17.66
2016-10-05T09:07:25.109Z,17.72
2016-10-05T09:08:07.805Z,17.59
2016-10-05T09:08:50.477Z,17.62
2016-10-05T09:09:33.057Z,17.58
2016-10-05T09:10:15.932Z,17.54
2016-10-05T09:10:58.458Z,17.51
2016-10-05T09:11:40.959Z,17.54
2016-10-05T09:12:23.504Z,17.56